Burke Lakefront Airport Cleveland US
ICAO: KBKL
IATA: BKL
Category: Medium
Scheduled Services: No

Elevation: 583 ft
TransAlt. 18000 ft.

Airport Communications:
CLEVELAND APP/DEP:125.35
ASOS:125.25
ATIS:125.25
CTAF:124.3
GND:121.9
LAKEFRONT TWR:124.3
UNICOM:122.95

KBKL Zoom In..

Runways:

(A) RW 06L length 6195 ft width 150 ft
---- / hdg 65

(B) RW 06R length 5199 ft width 100 ft
---- / hdg 65

(C) RW 24L length 5199 ft width 100 ft
---- / hdg 245

(D) RW 24R length 6195 ft width 150 ft
ILS 109.75 / hdg 245

Location; KBKL
Day. 15 / Time. 22.53 Zulu
* Altimeter: 29.95
* Temperature: 28° c. 82.4°f.
* Wind from: VRB° Speed 05 kn.
Dewpoint: 21° c.
Visibility: 9 Statute Miles.
Clouds: Clear (automated report).

KBKL 152253Z VRB05KT 9SM CLR 28/21 A2995 RMK AO2 SLP137 T02780211


Wind From VRB°
Speed 05 kn.

 
 
jpsmedia.com for Web Design worldairports.se 2018   terms of use